Time;durP1;ratioP1;P1;durP2;ratioP2;P2;SDS_P1;SDS_P2;PMS_P1;PMS_P2;Temp;Humidity;BMP_temperature;BMP_pressure;BME280_temperature;BME280_humidity;BME280_pressure;Samples;Min_cycle;Max_cycle;Signal;HPM_P1;HPM_P2
2021/09/13 00:02:21;;;;;;;;;40.50;28.75;;;;;17.93;57.41;100854.75;5088289;27;45434;-64
2021/09/13 00:04:47;;;;;;;;;13.00;9.75;;;;;17.96;57.75;100859.88;5071608;27;45523;-62
2021/09/13 00:07:12;;;;;;;;;10.00;9.00;;;;;17.92;57.42;100847.72;5071362;28;46392;-61
2021/09/13 00:09:37;;;;;;;;;9.50;9.50;;;;;17.99;57.28;100850.84;5073360;27;45282;-61
2021/09/13 00:12:03;;;;;;;;;14.50;12.25;;;;;17.99;57.37;100853.50;5054167;28;45403;-60
2021/09/13 00:14:29;;;;;;;;;10.00;9.00;;;;;18.00;57.48;100862.34;5054659;28;45594;-61
2021/09/13 00:16:55;;;;;;;;;12.75;12.00;;;;;17.96;57.15;100849.22;5072906;28;45326;-61
2021/09/13 00:19:22;;;;;;;;;11.00;9.00;;;;;17.97;57.42;100860.75;5076282;27;45240;-61
2021/09/13 00:21:48;;;;;;;;;13.25;10.25;;;;;17.98;57.66;100853.59;5077737;27;45263;-62
2021/09/13 00:24:13;;;;;;;;;13.25;9.25;;;;;17.96;57.65;100851.06;5077407;27;45509;-61
2021/09/13 00:26:39;;;;;;;;;9.25;8.50;;;;;17.96;57.46;100846.56;5076583;27;46174;-61
2021/09/13 00:29:04;;;;;;;;;13.00;11.00;;;;;17.95;58.18;100844.88;5075497;27;45454;-62
2021/09/13 00:31:29;;;;;;;;;13.50;11.00;;;;;17.93;58.08;100837.97;5077717;27;45343;-61
2021/09/13 00:33:55;;;;;;;;;12.00;10.25;;;;;17.89;58.19;100837.28;5077823;27;45550;-63
2021/09/13 00:36:20;;;;;;;;;14.25;12.75;;;;;17.84;58.22;100830.59;5077254;27;45432;-62
2021/09/13 00:38:45;;;;;;;;;16.25;11.75;;;;;17.78;58.66;100826.53;5077326;27;45341;-61
2021/09/13 00:41:11;;;;;;;;;10.25;9.25;;;;;17.73;58.27;100828.63;5077501;27;45334;-62
2021/09/13 00:43:36;;;;;;;;;11.00;10.00;;;;;17.68;58.65;100834.28;5077723;27;45376;-62
2021/09/13 00:46:02;;;;;;;;;13.00;11.25;;;;;17.58;58.60;100826.03;5077058;27;46412;-61
2021/09/13 00:48:27;;;;;;;;;11.50;10.75;;;;;17.50;58.79;100823.91;5077524;27;45244;-60
2021/09/13 00:50:52;;;;;;;;;10.75;10.00;;;;;17.49;59.34;100821.34;5077279;27;45315;-60
2021/09/13 00:53:18;;;;;;;;;8.00;8.00;;;;;17.39;59.42;100823.72;5074535;28;45586;-61
2021/09/13 00:55:43;;;;;;;;;12.50;10.50;;;;;17.34;59.96;100820.50;5076805;27;45328;-61
2021/09/13 00:58:09;;;;;;;;;15.00;11.00;;;;;17.27;59.76;100825.41;5076919;27;45265;-61
2021/09/13 01:00:35;;;;;;;;;8.50;7.75;;;;;17.25;60.22;100824.63;5076949;27;45239;-61
2021/09/13 01:03:01;;;;;;;;;19.00;12.25;;;;;17.19;60.00;100817.06;5077306;28;45275;-61
2021/09/13 01:05:26;;;;;;;;;10.75;10.75;;;;;17.13;60.85;100818.28;5074961;28;47247;-62
2021/09/13 01:07:52;;;;;;;;;13.25;11.50;;;;;17.10;61.13;100818.50;5075207;28;45407;-62
2021/09/13 01:10:20;;;;;;;;;10.50;10.00;;;;;17.03;61.28;100820.72;5076587;27;45267;-62
2021/09/13 01:12:46;;;;;;;;;13.75;12.00;;;;;17.00;61.57;100815.59;5076717;27;45533;-63
2021/09/13 01:15:11;;;;;;;;;10.75;10.00;;;;;16.98;61.70;100811.31;5076147;27;45403;-61
2021/09/13 01:17:37;;;;;;;;;13.75;9.50;;;;;16.95;61.36;100817.63;5076535;28;45444;-61
2021/09/13 01:20:03;;;;;;;;;16.00;10.25;;;;;16.94;61.30;100818.56;5076689;27;45392;-63
2021/09/13 01:22:29;;;;;;;;;11.25;9.00;;;;;16.90;61.40;100820.59;5076947;28;45183;-61
2021/09/13 01:24:55;;;;;;;;;9.00;8.50;;;;;16.90;61.46;100827.69;5076022;27;45333;-61
2021/09/13 01:27:20;;;;;;;;;10.50;10.50;;;;;16.88;61.60;100825.16;5076211;27;45181;-63
2021/09/13 01:29:45;;;;;;;;;9.25;8.75;;;;;16.83;61.62;100818.41;5090922;27;45307;-64
2021/09/13 01:32:11;;;;;;;;;7.75;7.75;;;;;16.85;61.81;100824.47;5076597;27;45320;-64
2021/09/13 01:34:37;;;;;;;;;13.25;9.25;;;;;16.79;62.31;100815.94;5076066;27;46015;-62
2021/09/13 01:37:02;;;;;;;;;10.25;8.75;;;;;16.75;62.46;100810.94;5075106;28;45387;-64
2021/09/13 01:39:28;;;;;;;;;6.75;6.75;;;;;16.71;62.29;100814.72;5076340;27;45268;-61
2021/09/13 01:41:54;;;;;;;;;12.00;10.00;;;;;16.68;62.38;100805.13;5076326;27;45363;-63
2021/09/13 01:44:19;;;;;;;;;12.25;11.25;;;;;16.65;62.51;100800.88;5075848;27;45369;-62
2021/09/13 01:46:44;;;;;;;;;11.75;9.00;;;;;16.59;62.27;100803.06;5075800;27;45351;-64
2021/09/13 01:49:11;;;;;;;;;11.75;9.25;;;;;16.58;62.62;100806.66;5076288;28;45287;-62
2021/09/13 01:51:38;;;;;;;;;15.50;8.75;;;;;16.56;62.62;100813.88;5076394;27;45573;-65
2021/09/13 01:54:04;;;;;;;;;12.25;10.25;;;;;16.49;62.42;100806.28;5076046;28;45345;-61
2021/09/13 01:56:30;;;;;;;;;11.00;9.00;;;;;16.43;62.82;100805.78;5074679;28;45330;-62
2021/09/13 01:58:55;;;;;;;;;9.75;9.75;;;;;16.38;63.13;100807.88;5076104;27;45370;-61
2021/09/13 02:01:21;;;;;;;;;11.00;9.75;;;;;16.34;62.78;100815.19;5075928;27;45240;-63
2021/09/13 02:03:47;;;;;;;;;11.00;8.25;;;;;16.26;63.31;100810.31;5075467;27;46393;-62
2021/09/13 02:06:13;;;;;;;;;9.75;9.00;;;;;16.23;63.05;100807.03;5075877;27;45365;-62
2021/09/13 02:08:39;;;;;;;;;12.00;11.00;;;;;16.16;63.81;100803.88;5075922;27;45401;-61
2021/09/13 02:11:05;;;;;;;;;11.75;9.50;;;;;16.16;63.72;100810.03;5076451;27;45438;-61
2021/09/13 02:13:31;;;;;;;;;12.00;10.50;;;;;16.14;63.70;100811.94;5091840;27;47306;-61
2021/09/13 02:15:57;;;;;;;;;12.50;10.00;;;;;16.08;64.25;100808.78;5074032;28;45504;-61
2021/09/13 02:18:22;;;;;;;;;13.75;10.25;;;;;16.03;64.37;100801.13;5075720;28;45445;-61
2021/09/13 02:20:47;;;;;;;;;10.25;8.00;;;;;15.86;63.98;100787.00;5075806;27;45346;-60
2021/09/13 02:23:13;;;;;;;;;8.75;8.50;;;;;15.94;63.99;100805.16;5075405;27;46079;-62
2021/09/13 02:25:38;;;;;;;;;10.00;8.75;;;;;15.91;64.03;100813.28;5075548;27;45381;-60
2021/09/13 02:28:04;;;;;;;;;13.25;9.50;;;;;15.90;64.12;100812.47;5075844;27;45437;-60
2021/09/13 02:30:29;;;;;;;;;10.00;9.50;;;;;15.87;64.22;100809.09;5074273;28;45339;-61
2021/09/13 02:32:55;;;;;;;;;7.75;7.75;;;;;15.86;64.02;100818.81;5075137;27;46145;-62
2021/09/13 02:35:20;;;;;;;;;12.00;10.00;;;;;15.82;64.22;100812.00;5075312;27;45318;-60
2021/09/13 02:37:45;;;;;;;;;9.00;9.00;;;;;15.78;64.37;100800.72;5075546;27;45519;-64
2021/09/13 02:40:11;;;;;;;;;11.00;10.00;;;;;15.74;64.73;100798.34;5075806;27;45629;-62
2021/09/13 02:42:36;;;;;;;;;9.50;8.75;;;;;15.76;64.62;100804.41;5073830;28;47044;-60
2021/09/13 02:45:03;;;;;;;;;15.00;12.50;;;;;15.74;64.20;100807.16;5075495;27;45188;-61
2021/09/13 02:47:29;;;;;;;;;10.00;10.00;;;;;15.68;64.15;100799.56;5075269;27;45507;-60
2021/09/13 02:49:54;;;;;;;;;13.50;10.50;;;;;15.68;65.02;100804.00;5073990;28;45587;-65
2021/09/13 02:52:20;;;;;;;;;8.75;8.75;;;;;15.66;64.70;100805.88;5075032;28;45358;-62
2021/09/13 02:54:45;;;;;;;;;14.50;12.00;;;;;15.66;64.72;100800.56;5074799;28;45420;-64
2021/09/13 02:57:11;;;;;;;;;10.75;8.50;;;;;15.62;64.79;100803.41;5075153;27;45464;-63
2021/09/13 02:59:36;;;;;;;;;13.25;12.25;;;;;15.63;64.95;100813.06;5075539;27;45544;-61
2021/09/13 03:02:01;;;;;;;;;16.75;16.00;;;;;15.56;65.09;100795.81;5074975;27;45446;-61
2021/09/13 03:04:27;;;;;;;;;13.50;11.75;;;;;15.47;65.56;100780.44;5075033;27;45797;-61
2021/09/13 03:06:52;;;;;;;;;12.75;10.25;;;;;15.54;65.17;100789.75;5075221;27;45683;-63
2021/09/13 03:09:18;;;;;;;;;11.25;11.25;;;;;15.53;65.31;100796.00;5075079;27;45309;-61
2021/09/13 03:11:43;;;;;;;;;10.50;10.50;;;;;15.50;65.45;100779.44;5074652;27;45380;-63
2021/09/13 03:14:10;;;;;;;;;11.25;10.25;;;;;15.49;65.74;100783.84;5073031;28;45930;-63
2021/09/13 03:16:35;;;;;;;;;11.25;11.25;;;;;15.48;65.77;100782.16;5075024;27;45353;-65
2021/09/13 03:19:00;;;;;;;;;11.00;11.00;;;;;15.36;66.14;100767.78;5074870;27;45216;-62
2021/09/13 03:21:26;;;;;;;;;10.25;9.00;;;;;15.44;65.59;100794.75;5074562;27;46510;-61
2021/09/13 03:23:52;;;;;;;;;15.25;13.75;;;;;15.44;65.94;100792.09;5074566;27;45246;-62
2021/09/13 03:26:17;;;;;;;;;11.50;10.50;;;;;15.40;66.17;100784.38;5074779;27;45349;-63
2021/09/13 03:28:43;;;;;;;;;8.25;7.25;;;;;15.44;66.49;100793.88;5074479;28;45249;-61
2021/09/13 03:31:08;;;;;;;;;11.00;10.00;;;;;15.41;66.27;100792.25;5074693;27;45291;-64
2021/09/13 03:33:34;;;;;;;;;10.50;10.50;;;;;15.39;66.40;100791.50;5074770;27;45394;-64
2021/09/13 03:36:00;;;;;;;;;13.75;11.25;;;;;15.40;66.39;100789.69;5074675;27;45386;-63
2021/09/13 03:38:25;;;;;;;;;14.00;10.50;;;;;15.36;66.83;100774.91;5074838;28;45512;-63
2021/09/13 03:40:50;;;;;;;;;12.75;10.25;;;;;15.36;66.91;100778.41;5074437;27;45459;-63
2021/09/13 03:43:16;;;;;;;;;17.00;10.00;;;;;15.34;66.97;100781.16;5074742;28;45444;-61
2021/09/13 03:45:41;;;;;;;;;15.00;11.75;;;;;15.32;66.96;100785.69;5074562;27;45337;-61
2021/09/13 03:48:07;;;;;;;;;13.25;11.25;;;;;15.31;67.25;100777.81;5075176;27;45442;-62
2021/09/13 03:50:32;;;;;;;;;12.25;11.00;;;;;15.26;67.30;100778.09;5074472;27;47432;-63
2021/09/13 03:52:58;;;;;;;;;13.00;11.50;;;;;15.24;67.42;100771.16;5075039;27;45436;-61
2021/09/13 03:55:23;;;;;;;;;14.00;14.00;;;;;15.24;67.14;100777.31;5077095;28;45792;-62
2021/09/13 03:57:49;;;;;;;;;20.00;14.00;;;;;15.25;67.43;100780.81;5076963;27;45208;-64
2021/09/13 04:00:14;;;;;;;;;14.25;13.50;;;;;15.19;67.14;100776.72;5077576;27;45443;-63
2021/09/13 04:02:44;;;;;;;;;11.50;11.50;;;;;15.20;67.43;100775.78;5077842;28;45165;-62
2021/09/13 04:05:12;;;;;;;;;11.50;11.00;;;;;15.19;67.38;100782.03;5077931;27;45318;-63
2021/09/13 04:08:01;;;;;;;;;9.00;8.25;;;;;15.17;67.80;100774.16;5078009;27;45464;-62
2021/09/13 04:12:49;;;;;;;;;11.75;11.25;;;;;15.13;68.34;100777.91;5077503;27;45864;-62
2021/09/13 04:15:14;;;;;;;;;11.25;11.25;;;;;15.13;67.71;100777.06;5077297;27;45385;-62
2021/09/13 04:17:41;;;;;;;;;17.25;12.00;;;;;15.09;68.25;100765.78;5078033;27;45175;-63
2021/09/13 04:20:07;;;;;;;;;15.50;12.25;;;;;15.15;68.38;100768.06;5093321;27;48187;-61
2021/09/13 04:22:32;;;;;;;;;15.25;12.00;;;;;15.13;68.19;100769.97;5076175;28;45426;-61
2021/09/13 04:24:59;;;;;;;;;17.00;15.00;;;;;15.15;68.01;100775.19;5075769;28;45295;-61
2021/09/13 04:27:25;;;;;;;;;17.00;15.50;;;;;15.10;68.24;100764.84;5077534;27;45426;-61
2021/09/13 04:29:51;;;;;;;;;18.25;13.00;;;;;15.11;68.33;100769.19;5077343;27;46449;-61
2021/09/13 04:32:16;;;;;;;;;15.75;13.25;;;;;15.14;68.18;100773.47;5077557;27;45317;-61
2021/09/13 04:34:41;;;;;;;;;11.50;10.50;;;;;15.10;68.47;100756.88;5077510;27;45593;-60
2021/09/13 04:37:07;;;;;;;;;13.50;13.50;;;;;15.08;68.66;100764.06;5076689;28;45365;-62
2021/09/13 04:39:32;;;;;;;;;11.00;11.00;;;;;15.06;68.29;100760.66;5077323;27;45489;-62
2021/09/13 04:41:59;;;;;;;;;15.00;13.25;;;;;15.03;68.52;100755.53;5077591;27;45418;-63
2021/09/13 04:44:24;;;;;;;;;17.00;15.50;;;;;15.04;69.15;100757.22;5077682;27;45239;-63
2021/09/13 04:46:50;;;;;;;;;15.25;13.50;;;;;15.08;68.43;100757.94;5077485;27;45181;-62
2021/09/13 04:49:15;;;;;;;;;14.25;13.25;;;;;15.05;68.67;100756.28;5075874;27;46476;-62
2021/09/13 04:51:41;;;;;;;;;13.75;12.25;;;;;15.11;68.46;100763.06;5077919;27;45451;-61
2021/09/13 04:54:06;;;;;;;;;13.75;12.75;;;;;15.11;68.71;100768.34;5076166;27;45402;-62
2021/09/13 04:56:31;;;;;;;;;17.75;15.75;;;;;15.08;68.66;100768.53;5077276;27;45219;-62
2021/09/13 04:58:57;;;;;;;;;13.75;11.75;;;;;15.07;68.87;100766.81;5076645;27;45220;-64
2021/09/13 05:01:22;;;;;;;;;15.25;12.25;;;;;15.06;68.60;100762.47;5076833;27;45260;-63
2021/09/13 05:03:48;;;;;;;;;12.25;12.25;;;;;15.04;68.61;100765.19;5076631;27;45390;-62
2021/09/13 05:06:13;;;;;;;;;12.25;11.50;;;;;15.02;69.28;100764.41;5077551;27;45361;-62
2021/09/13 05:08:38;;;;;;;;;16.00;14.00;;;;;15.05;69.12;100761.59;5076799;28;45344;-63
2021/09/13 05:11:04;;;;;;;;;13.75;13.00;;;;;15.02;69.23;100759.13;5076948;27;45370;-64
2021/09/13 05:13:29;;;;;;;;;15.75;14.25;;;;;15.07;69.01;100769.47;5077071;27;45492;-63
2021/09/13 05:15:55;;;;;;;;;15.25;13.25;;;;;15.04;69.21;100758.09;5075599;28;45381;-62
2021/09/13 05:18:20;;;;;;;;;14.50;13.75;;;;;15.05;69.16;100756.28;5076658;27;45483;-61
2021/09/13 05:20:46;;;;;;;;;17.50;15.25;;;;;15.06;69.32;100765.09;5076619;27;45340;-64
2021/09/13 05:23:11;;;;;;;;;16.75;16.00;;;;;15.06;69.38;100754.50;5075545;28;45315;-63
2021/09/13 05:25:36;;;;;;;;;15.75;14.25;;;;;15.07;69.38;100764.16;5076816;27;45632;-64
2021/09/13 05:28:02;;;;;;;;;16.00;14.50;;;;;15.04;69.52;100758.09;5074934;28;46486;-65
2021/09/13 05:30:27;;;;;;;;;14.75;14.00;;;;;15.04;69.35;100763.41;5076330;27;45416;-63
2021/09/13 05:32:52;;;;;;;;;19.00;15.25;;;;;15.07;69.63;100761.53;5076606;27;45400;-64
2021/09/13 05:35:18;;;;;;;;;21.50;18.00;;;;;15.07;69.41;100761.53;5076660;27;45454;-62
2021/09/13 05:37:44;;;;;;;;;18.75;14.50;;;;;15.06;69.57;100755.34;5076568;27;46147;-61
2021/09/13 05:40:09;;;;;;;;;16.75;14.75;;;;;15.01;69.84;100744.16;5076258;27;45337;-61
2021/09/13 05:42:35;;;;;;;;;17.75;15.50;;;;;15.00;70.04;100747.75;5092103;27;45260;-61
2021/09/13 05:45:01;;;;;;;;;20.50;16.50;;;;;15.01;70.35;100746.81;5076490;27;45491;-62
2021/09/13 05:47:26;;;;;;;;;17.00;16.75;;;;;15.02;70.04;100756.47;5091940;27;46897;-63
2021/09/13 05:49:52;;;;;;;;;18.75;14.25;;;;;14.97;70.43;100748.78;5076635;28;45192;-61
2021/09/13 05:52:18;;;;;;;;;17.75;15.25;;;;;15.00;70.14;100745.97;5076470;27;45384;-63
2021/09/13 05:54:43;;;;;;;;;21.25;16.50;;;;;15.02;70.31;100753.81;5075493;28;45554;-62
2021/09/13 05:57:09;;;;;;;;;18.75;16.75;;;;;14.97;70.33;100743.50;5076018;27;45405;-62
2021/09/13 05:59:34;;;;;;;;;19.75;18.50;;;;;14.99;70.64;100754.00;5076291;27;45406;-65
2021/09/13 06:02:00;;;;;;;;;18.25;16.00;;;;;14.99;70.95;100754.00;5076116;27;45898;-62
2021/09/13 06:04:29;;;;;;;;;16.75;16.00;;;;;14.98;70.56;100755.81;5076236;27;45463;-63
2021/09/13 06:06:55;;;;;;;;;18.00;17.00;;;;;14.99;70.59;100756.63;5075664;27;47329;-62
2021/09/13 06:09:20;;;;;;;;;21.25;19.75;;;;;15.00;70.52;100761.88;5075885;27;45279;-62
2021/09/13 06:11:46;;;;;;;;;15.75;15.75;;;;;15.04;70.25;100755.44;5076245;27;45320;-61
2021/09/13 06:14:11;;;;;;;;;24.00;19.50;;;;;15.07;71.02;100751.75;5075851;28;45402;-61
2021/09/13 06:16:37;;;;;;;;;24.50;18.25;;;;;15.14;70.29;100757.59;5074844;27;45449;-61
2021/09/13 06:19:02;;;;;;;;;20.50;20.00;;;;;15.23;70.06;100757.06;5074314;28;45258;-64
2021/09/13 06:21:27;;;;;;;;;32.00;28.50;;;;;15.27;70.63;100755.94;5075445;27;45316;-62
2021/09/13 06:23:53;;;;;;;;;22.25;20.50;;;;;15.32;70.38;100753.00;5075554;27;45683;-62
2021/09/13 06:26:18;;;;;;;;;19.50;16.25;;;;;15.39;69.76;100757.03;5074007;28;47740;-62
2021/09/13 06:28:44;;;;;;;;;20.75;18.25;;;;;15.49;69.28;100765.28;5075756;27;45496;-65
2021/09/13 06:31:09;;;;;;;;;22.50;19.75;;;;;15.50;69.44;100758.22;5091803;27;45416;-65
2021/09/13 06:33:35;;;;;;;;;20.75;18.25;;;;;15.58;69.68;100763.94;5076412;27;45504;-62
2021/09/13 06:36:02;;;;;;;;;18.25;18.25;;;;;15.68;69.12;100772.19;5075407;27;45428;-65
2021/09/13 06:38:28;;;;;;;;;20.00;17.75;;;;;15.74;68.90;100771.81;5074521;28;45422;-64
2021/09/13 06:40:53;;;;;;;;;63.25;47.50;;;;;15.82;68.89;100769.56;5075931;27;45308;-64
2021/09/13 06:43:19;;;;;;;;;22.00;17.75;;;;;15.84;69.00;100757.06;5075632;27;45768;-63
2021/09/13 06:45:46;;;;;;;;;22.25;20.75;;;;;15.93;68.46;100766.31;5075759;27;46874;-63
2021/09/13 06:48:14;;;;;;;;;32.50;25.25;;;;;16.01;68.45;100768.53;5090806;27;45278;-65
2021/09/13 06:50:43;;;;;;;;;25.25;22.00;;;;;16.08;68.14;100780.47;5075025;27;45370;-64
2021/09/13 06:53:09;;;;;;;;;18.25;18.00;;;;;16.16;68.03;100780.84;5075314;27;45398;-63
2021/09/13 06:55:38;;;;;;;;;29.00;20.50;;;;;16.21;67.91;100780.56;5073115;27;45364;-61
2021/09/13 06:58:08;;;;;;;;;22.00;17.75;;;;;16.27;68.04;100780.19;5086243;27;45481;-64
2021/09/13 07:00:34;;;;;;;;;23.00;19.25;;;;;16.33;67.58;100785.13;5054401;28;45745;-64
2021/09/13 07:03:00;;;;;;;;;28.50;25.75;;;;;16.41;67.20;100789.97;5082672;27;45614;-64
2021/09/13 07:05:26;;;;;;;;;25.50;19.25;;;;;16.50;66.98;100786.75;5072304;27;46174;-64
2021/09/13 07:07:51;;;;;;;;;21.25;18.50;;;;;16.57;66.70;100789.00;5080762;27;45487;-66
2021/09/13 07:10:20;;;;;;;;;19.75;19.00;;;;;16.64;66.71;100782.38;5074084;27;45359;-65
2021/09/13 07:12:47;;;;;;;;;23.00;20.25;;;;;16.70;66.25;100775.84;5074018;27;45348;-64
2021/09/13 07:15:15;;;;;;;;;25.50;24.25;;;;;16.74;66.19;100772.88;5073344;27;46820;-66
2021/09/13 07:17:41;;;;;;;;;24.00;19.50;;;;;16.77;66.60;100777.16;5071936;28;45472;-65
2021/09/13 07:20:07;;;;;;;;;20.75;19.00;;;;;16.81;65.97;100778.66;5073705;28;45306;-67
2021/09/13 07:22:33;;;;;;;;;27.75;24.00;;;;;16.90;65.93;100777.22;5062209;27;45419;-65
2021/09/13 07:24:59;;;;;;;;;23.50;21.25;;;;;16.96;65.96;100776.81;5074360;27;45483;-64
2021/09/13 07:27:24;;;;;;;;;25.75;20.25;;;;;17.04;65.48;100771.06;5072630;27;45436;-68
2021/09/13 07:29:50;;;;;;;;;36.50;32.00;;;;;17.12;65.28;100770.56;5077097;28;45456;-66
2021/09/13 07:32:15;;;;;;;;;24.50;22.00;;;;;17.22;65.51;100772.50;5078188;27;45475;-66
2021/09/13 07:34:40;;;;;;;;;25.25;20.00;;;;;17.34;64.92;100770.88;5092515;27;48586;-64
2021/09/13 07:37:06;;;;;;;;;23.50;21.50;;;;;17.38;64.79;100756.41;5076553;27;45454;-63
2021/09/13 07:39:32;;;;;;;;;21.50;19.25;;;;;17.50;64.16;100759.22;5092880;27;45594;-63
2021/09/13 07:41:57;;;;;;;;;21.25;20.75;;;;;17.64;63.89;100767.13;5077195;27;45593;-63
2021/09/13 07:44:23;;;;;;;;;24.50;22.00;;;;;17.74;63.57;100761.19;5078147;27;45459;-64
2021/09/13 07:46:49;;;;;;;;;19.50;19.50;;;;;17.87;63.67;100767.38;5078449;27;45329;-63
2021/09/13 07:49:15;;;;;;;;;23.25;21.00;;;;;18.03;63.08;100777.03;5078373;28;45368;-65
2021/09/13 07:51:40;;;;;;;;;25.75;21.00;;;;;18.15;63.29;100776.16;5078277;27;45243;-64
2021/09/13 07:54:06;;;;;;;;;21.00;20.50;;;;;18.29;62.74;100777.84;5092332;27;46725;-64
2021/09/13 07:56:35;;;;;;;;;26.00;22.00;;;;;18.44;61.71;100778.59;5093595;27;45465;-63
2021/09/13 07:59:03;;;;;;;;;22.75;21.50;;;;;18.57;61.96;100772.41;5076721;28;45361;-64
2021/09/13 08:01:29;;;;;;;;;22.25;20.00;;;;;18.68;61.18;100765.38;5078078;28;45480;-66
2021/09/13 08:03:55;;;;;;;;;21.50;19.75;;;;;18.74;61.04;100758.72;5093499;27;47496;-63
2021/09/13 08:06:20;;;;;;;;;22.75;19.00;;;;;18.83;60.50;100759.88;5077693;27;45313;-64
2021/09/13 08:08:46;;;;;;;;;26.00;22.00;;;;;18.89;61.20;100753.25;5093794;27;45286;-64
2021/09/13 08:11:12;;;;;;;;;23.25;20.25;;;;;18.91;60.74;100751.31;5077823;27;45668;-64
2021/09/13 08:13:39;;;;;;;;;23.75;21.75;;;;;18.89;59.91;100742.59;5076432;28;46035;-64
2021/09/13 08:16:08;;;;;;;;;19.50;18.75;;;;;18.89;59.65;100748.78;5077290;27;45559;-65
2021/09/13 08:18:34;;;;;;;;;27.75;25.00;;;;;18.88;59.78;100748.88;5077598;27;45365;-63
2021/09/13 08:20:59;;;;;;;;;20.00;15.25;;;;;18.97;60.30;100740.25;5078133;28;45322;-63
2021/09/13 08:23:25;;;;;;;;;16.25;15.75;;;;;19.11;58.96;100739.22;5077804;27;45540;-64
2021/09/13 08:25:50;;;;;;;;;19.75;17.75;;;;;19.23;59.12;100751.66;5077981;28;45164;-64
2021/09/13 08:28:23;;;;;;;;;14.75;13.25;;;;;19.34;58.76;100747.34;5077670;27;45249;-63
2021/09/13 08:30:49;;;;;;;;;16.00;13.50;;;;;19.49;57.94;100745.34;5077929;27;45240;-64
2021/09/13 08:33:15;;;;;;;;;15.25;12.75;;;;;19.65;58.78;100748.53;5076852;28;46648;-65
2021/09/13 08:35:41;;;;;;;;;15.50;12.25;;;;;19.91;57.87;100748.41;5077086;28;45274;-64
2021/09/13 08:38:06;;;;;;;;;15.25;14.50;;;;;20.15;56.23;100734.13;5077494;27;45192;-64
2021/09/13 08:40:32;;;;;;;;;15.00;14.00;;;;;20.31;55.86;100741.75;5092648;27;45809;-64
2021/09/13 08:42:58;;;;;;;;;15.00;11.50;;;;;20.37;55.51;100738.59;5077382;27;46081;-64
2021/09/13 08:51:06;;;;;;;;;14.25;12.50;;;;;20.56;54.19;100751.38;5077671;27;45424;-64
2021/09/13 08:53:38;;;;;;;;;13.00;11.00;;;;;20.61;54.54;100742.13;5076299;27;47074;-63
2021/09/13 08:56:05;;;;;;;;;9.00;9.00;;;;;20.65;54.44;100749.75;5076815;27;45438;-64
2021/09/13 08:58:35;;;;;;;;;11.00;11.00;;;;;20.67;54.27;100745.13;5076869;27;45373;-64
2021/09/13 09:01:01;;;;;;;;;15.25;13.50;;;;;20.64;54.37;100753.41;5077422;27;45137;-64
2021/09/13 09:03:28;;;;;;;;;20.25;18.50;;;;;20.60;54.07;100762.63;5075619;28;46893;-63
2021/09/13 09:05:54;;;;;;;;;13.75;13.75;;;;;20.67;54.43;100763.84;5077316;28;45794;-64
2021/09/13 09:08:28;;;;;;;;;14.00;12.00;;;;;20.82;54.37;100767.16;5077141;27;45501;-64
2021/09/13 09:11:00;;;;;;;;;13.00;12.75;;;;;20.87;53.94;100775.66;5077450;27;45532;-64
2021/09/13 09:13:40;;;;;;;;;17.25;14.25;;;;;21.01;54.07;100761.16;5076707;27;45550;-64
2021/09/13 09:16:06;;;;;;;;;11.75;11.25;;;;;21.17;53.84;100774.13;5076685;27;45450;-64
2021/09/13 09:18:42;;;;;;;;;10.50;10.50;;;;;21.24;52.96;100765.59;5076760;27;45358;-64
2021/09/13 09:21:10;;;;;;;;;8.50;8.50;;;;;21.32;53.11;100768.50;5077123;27;45346;-66
2021/09/13 09:23:55;;;;;;;;;12.50;12.00;;;;;21.33;52.92;100762.16;5074942;28;46325;-65
2021/09/13 09:26:22;;;;;;;;;16.50;14.25;;;;;21.43;52.95;100771.13;5092223;27;45345;-64
2021/09/13 09:28:48;;;;;;;;;15.25;15.25;;;;;21.50;52.74;100766.09;5074971;28;45361;-64
2021/09/13 09:31:13;;;;;;;;;12.75;12.25;;;;;21.60;52.43;100763.50;5075161;28;45251;-64
2021/09/13 09:33:39;;;;;;;;;12.50;11.00;;;;;21.69;52.51;100761.88;5076449;28;45469;-64
2021/09/13 09:36:12;;;;;;;;;15.00;12.00;;;;;21.76;52.54;100751.53;5076787;27;45396;-64
2021/09/13 09:38:42;;;;;;;;;10.75;10.00;;;;;21.94;51.83;100766.00;5076908;27;45200;-66
2021/09/13 09:41:09;;;;;;;;;11.00;10.00;;;;;22.00;51.42;100749.41;5075419;28;45408;-65
2021/09/13 09:43:59;;;;;;;;;11.50;11.00;;;;;22.17;51.13;100760.50;5076163;27;45501;-64
2021/09/13 09:46:38;;;;;;;;;13.50;12.75;;;;;22.28;50.66;100763.13;5076529;28;45391;-66
2021/09/13 09:49:22;;;;;;;;;11.75;11.75;;;;;22.30;51.04;100752.25;5076341;27;45282;-65
2021/09/13 09:51:55;;;;;;;;;15.75;12.25;;;;;22.40;51.27;100752.31;5075228;27;45446;-65
2021/09/13 09:54:30;;;;;;;;;17.00;14.25;;;;;22.55;51.14;100742.94;5075842;28;45413;-64
2021/09/13 09:57:02;;;;;;;;;9.00;8.25;;;;;22.72;49.61;100751.31;5075214;28;45523;-64
2021/09/13 09:59:46;;;;;;;;;13.50;13.00;;;;;22.68;49.97;100744.53;5075938;27;45245;-65
2021/09/13 10:02:12;;;;;;;;;14.75;13.25;;;;;22.74;50.39;100733.25;5076349;27;45180;-65
2021/09/13 10:04:37;;;;;;;;;24.50;23.00;;;;;22.79;49.79;100719.41;5091204;27;46535;-65
2021/09/13 10:07:03;;;;;;;;;11.75;11.75;;;;;22.90;49.28;100724.69;5075506;27;45363;-65
2021/09/13 10:09:30;;;;;;;;;16.00;12.00;;;;;23.00;50.01;100719.31;5075702;28;45379;-64
2021/09/13 10:11:57;;;;;;;;;11.25;10.25;;;;;23.14;48.65;100715.38;5076282;27;45406;-63
2021/09/13 10:14:28;;;;;;;;;12.25;11.00;;;;;23.11;48.69;100697.72;5075829;27;46153;-65
2021/09/13 10:16:55;;;;;;;;;16.25;11.50;;;;;23.24;49.61;100696.63;5075872;27;45322;-65
2021/09/13 10:19:22;;;;;;;;;13.00;10.00;;;;;23.36;49.46;100695.50;5075552;27;45307;-65
2021/09/13 10:21:49;;;;;;;;;10.00;9.25;;;;;23.49;48.86;100697.88;5075828;27;45644;-65
2021/09/13 10:24:19;;;;;;;;;11.50;10.00;;;;;23.58;48.44;100693.50;5075304;27;45402;-66
2021/09/13 10:27:10;;;;;;;;;7.75;7.75;;;;;23.63;47.96;100693.91;5075175;27;45511;-64
2021/09/13 10:29:35;;;;;;;;;7.00;7.00;;;;;23.73;48.25;100697.41;5075523;27;45422;-65
2021/09/13 10:32:07;;;;;;;;;17.50;16.25;;;;;23.76;46.81;100698.94;5091086;27;45643;-65
2021/09/13 10:34:53;;;;;;;;;18.25;17.75;;;;;23.75;47.48;100692.75;5090657;27;45489;-64
2021/09/13 10:37:21;;;;;;;;;15.50;14.75;;;;;23.78;47.13;100689.78;5075289;27;45407;-66
2021/09/13 10:40:01;;;;;;;;;14.75;13.00;;;;;23.87;47.79;100689.88;5075317;27;45371;-65
2021/09/13 10:42:31;;;;;;;;;11.50;10.25;;;;;23.95;46.89;100683.78;5091160;27;45380;-65
2021/09/13 10:45:11;;;;;;;;;19.25;13.75;;;;;23.96;47.05;100675.56;5075902;27;46632;-66
2021/09/13 10:47:39;;;;;;;;;7.00;7.00;;;;;24.03;46.70;100683.94;5090992;27;45413;-65
2021/09/13 10:50:15;;;;;;;;;9.00;7.00;;;;;24.03;46.01;100676.69;5073877;28;45418;-65
2021/09/13 10:52:41;;;;;;;;;12.25;12.00;;;;;24.11;45.93;100675.13;5075923;27;45458;-66
2021/09/13 10:55:09;;;;;;;;;13.75;13.75;;;;;24.23;46.93;100676.59;5075370;28;46251;-64
2021/09/13 10:57:53;;;;;;;;;16.75;16.00;;;;;24.47;47.03;100681.44;5075730;27;45408;-66
2021/09/13 11:00:50;;;;;;;;;18.75;16.75;;;;;24.64;45.99;100670.88;5091050;27;45373;-65
2021/09/13 11:03:32;;;;;;;;;10.00;7.75;;;;;24.75;46.15;100670.69;5037750;27;45390;-65
2021/09/13 11:06:13;;;;;;;;;8.50;8.50;;;;;24.79;45.67;100668.53;5075222;27;45950;-65
2021/09/13 11:08:45;;;;;;;;;9.75;9.00;;;;;24.83;45.06;100672.63;5074717;27;45524;-64
2021/09/13 11:11:13;;;;;;;;;13.50;10.75;;;;;24.73;45.30;100669.97;5074924;28;45434;-65
2021/09/13 11:13:41;;;;;;;;;9.00;8.00;;;;;24.62;45.15;100662.97;5075259;27;45292;-65
2021/09/13 11:16:07;;;;;;;;;9.25;8.00;;;;;24.66;45.90;100658.13;5074599;27;45566;-65
2021/09/13 11:18:33;;;;;;;;;8.75;7.50;;;;;24.80;45.64;100656.78;5073383;28;45349;-66
2021/09/13 11:21:27;;;;;;;;;9.50;8.75;;;;;25.00;45.11;100659.31;5075510;27;45520;-64